Aérodrome :
LOGIN :

S'inscrire | Disclaimer

   EN    FR    IT 

 










Légende :    VFR   VFR Marginal   IFR   IFR Intensif   IFR Très Intensif
Visi : 
Plafond : 
>= 8 km
>= 3000ft
5 à 8 km
1000 à 3000 ft
1500m à 5 km
500 à 1000 ft
800 à 1500m
200 à 500 ft
< 800m
< 200 ft
Symboles :   Orages  Brouillard  Fortes neiges  Fortes précipitations  Vent > 20 kt
SIGMETs :   Divers  Orages  Givrage  Turbulence  Onde Orograph.  Cendres Volcan.







- Altitude de l'aérodrome : 512 ft
- Code IATA : URO
- Voir les cartes d'approche


LFOP - Rouen Vallée de Seine

DERNIER METAR :
  • 202030Z AUTO 31016KT 270V340 9999 BKN011/// OVC044/// ///TCU 09/08 Q1003 TEMPO 29020G30KT 3000 RA BKN006 BKN013TCU

METARs EXPIRÉS :
  • 202000Z AUTO 30016KT 9999 OVC010/// ///TCU 09/08 Q1003 TEMPO 29020G30KT 3000 RA
  • 201930Z AUTO 29013KT 270V330 9999 OVC009 09/08 Q1002 TEMPO 29020G30KT 3000 RA BKN006 BKN013TCU
  • 201900Z AUTO 28015G26KT 9999 OVC008 10/09 Q1001 TEMPO 3000 RA BKN006 BKN013TCU
  • 201830Z AUTO 29012KT 260V320 9999 OVC008/// ///TCU 10/09 Q1001 TEMPO 29020G30KT 3000 RA
  • 201800Z AUTO 29013G24KT 9999 OVC007/// ///TCU 10/09 Q1000 TEMPO 3000 RA

TAF TAF LFOP
Valide du 20 à 18h jusqu'au 21 à 18h UTC


201700Z 2018/2118 29014KT 9999 BKN013
TEMPO 2018/2023 29020G30KT 3000 RA BKN006 BKN013TCU
FM202300 33007KT 9999 BKN016
BECMG 2105/2107 4000 RA OVC008
TEMPO 2107/2118 2000 RADZ OVC003
BECMG 2109/2112 16012KT
ATIS : +33 2 35 80 80 34
Météo : +33 2 32 86 52 80
Pas de NOTAMs connus pour ce terrain.
2 SIGMETs publiés pour la FIR Paris (LFFF) :
 
Turbulence forte
LFFF SIGMET 8 VALID 202100/210100 LFPW
LFFF PARIS FIR/UIR SEV TURB FCST NE OF LINE N5100 E00145 - N4815 E00530 FL180/290 MOV NE 20KT NC=
Turbulence forte
LFFF SIGMET 7 VALID 201700/202100 LFPW
LFFF PARIS FIR/UIR SEV TURB FCST NE OF LINE N4815 E00515 - N5045 E00100 FL180/310 MOV NE 15KT NC=



MET'MAP, la Météo Aéronautique d'un coup d'oeil ! - Copyright ORBIFLY Décembre 2007 - Disclaimer

ORBIFLY MET'MAP TEAM :

Programmation & Développement : Alexandra Zaïnal
Conception & Développement : Baudouin d'Aumeries
Co-Programmation & Développement : Marc-Olivier Méhu
Soutien technique & logistique : Manuel Goepfert

Contact : metmap@orbifly.com




SOURCES & CREDITS :

   NOAA